Time;durP1;ratioP1;P1;durP2;ratioP2;P2;SDS_P1;SDS_P2;PMS_P1;PMS_P2;Temp;Humidity;BMP_temperature;BMP_pressure;BME280_temperature;BME280_humidity;BME280_pressure;Samples;Min_cycle;Max_cycle;Signal;HPM_P1;HPM_P2
2024/01/05 00:01:25;;;;;;;69.13;48.15;;;4.30;99.90;;;;;;4882957;29;20048;-77
2024/01/05 00:03:51;;;;;;;74.30;48.50;;;4.30;99.90;;;;;;4882527;29;20128;-77
2024/01/05 00:06:17;;;;;;;59.97;41.72;;;4.30;99.90;;;;;;4882581;29;20124;-77
2024/01/05 00:08:42;;;;;;;63.08;42.50;;;4.30;99.90;;;;;;4888141;29;20045;-75
2024/01/05 00:11:08;;;;;;;69.65;46.92;;;4.30;99.90;;;;;;4908742;29;20040;-76
2024/01/05 00:13:33;;;;;;;72.07;47.67;;;4.20;99.90;;;;;;4901376;29;20044;-77
2024/01/05 00:15:59;;;;;;;69.05;47.63;;;4.20;99.90;;;;;;4917073;29;20040;-77
2024/01/05 00:18:24;;;;;;;65.78;45.67;;;4.20;99.90;;;;;;4897805;29;20040;-75
2024/01/05 00:20:50;;;;;;;60.83;42.95;;;4.20;99.90;;;;;;4882110;29;20081;-76
2024/01/05 00:23:16;;;;;;;55.90;41.53;;;4.20;99.90;;;;;;4882125;29;20072;-76
2024/01/05 00:25:42;;;;;;;67.88;46.75;;;4.20;99.90;;;;;;4900345;29;20747;-77
2024/01/05 00:28:07;;;;;;;54.95;40.47;;;4.20;99.90;;;;;;4901037;29;20127;-77
2024/01/05 00:30:36;;;;;;;62.38;44.08;;;4.20;99.90;;;;;;4900869;29;20051;-75
2024/01/05 00:33:02;;;;;;;52.05;39.83;;;4.20;99.90;;;;;;4900703;29;20043;-77
2024/01/05 00:35:27;;;;;;;56.00;41.95;;;4.30;99.90;;;;;;4900781;29;20051;-76
2024/01/05 00:37:53;;;;;;;53.08;39.20;;;4.20;99.90;;;;;;4897912;29;20133;-77
2024/01/05 00:40:18;;;;;;;59.72;42.08;;;4.20;99.90;;;;;;4911249;29;20043;-77
2024/01/05 00:42:45;;;;;;;53.92;39.88;;;4.30;99.90;;;;;;4900519;29;20128;-77
2024/01/05 00:45:10;;;;;;;53.88;40.13;;;4.20;99.90;;;;;;4900644;29;20041;-77
2024/01/05 00:47:36;;;;;;;51.63;39.42;;;4.20;99.90;;;;;;4900336;29;20479;-77
2024/01/05 00:50:03;;;;;;;51.30;38.63;;;4.20;99.90;;;;;;4900370;29;20071;-77
2024/01/05 00:52:28;;;;;;;51.28;37.38;;;4.20;99.90;;;;;;4900846;29;20119;-76
2024/01/05 00:54:54;;;;;;;46.85;37.30;;;4.20;99.90;;;;;;4898635;29;20051;-77
2024/01/05 00:57:20;;;;;;;44.33;34.83;;;4.20;99.90;;;;;;4900453;29;20044;-76
2024/01/05 00:59:45;;;;;;;50.45;38.67;;;4.20;99.90;;;;;;4896850;29;20049;-77
2024/01/05 01:02:11;;;;;;;52.38;38.28;;;4.20;99.90;;;;;;4881701;29;20056;-77
2024/01/05 01:04:37;;;;;;;53.13;38.03;;;4.20;99.90;;;;;;4881310;29;20084;-77
2024/01/05 01:07:02;;;;;;;45.95;35.45;;;4.20;99.90;;;;;;4881396;29;20075;-76
2024/01/05 01:09:28;;;;;;;50.75;35.13;;;4.20;99.90;;;;;;4892159;29;20064;-75
2024/01/05 01:11:53;;;;;;;44.78;32.13;;;4.10;99.90;;;;;;4899934;29;20446;-77
2024/01/05 01:14:19;;;;;;;42.85;32.53;;;4.20;99.90;;;;;;4913157;29;20044;-77
2024/01/05 01:16:45;;;;;;;43.45;30.58;;;4.20;99.90;;;;;;4884345;29;20392;-77
2024/01/05 01:19:10;;;;;;;49.38;31.95;;;4.20;99.90;;;;;;4888042;29;20396;-75
2024/01/05 01:21:36;;;;;;;44.35;31.77;;;4.10;99.90;;;;;;4899968;29;20177;-77
2024/01/05 01:24:01;;;;;;;47.70;33.00;;;4.10;99.90;;;;;;4893030;29;20083;-77
2024/01/05 01:26:27;;;;;;;44.63;33.63;;;4.10;99.90;;;;;;4928395;29;20487;-76
2024/01/05 01:28:53;;;;;;;42.88;32.70;;;4.10;99.90;;;;;;4898496;29;20446;-76
2024/01/05 01:31:18;;;;;;;40.95;31.27;;;4.10;99.90;;;;;;4881363;29;20040;-77
2024/01/05 01:33:44;;;;;;;46.70;31.85;;;4.10;99.90;;;;;;4884299;29;20047;-77
2024/01/05 01:36:09;;;;;;;47.88;34.05;;;4.10;99.90;;;;;;4884405;29;20494;-76
2024/01/05 01:38:36;;;;;;;50.03;35.40;;;4.10;99.90;;;;;;4889843;29;20644;-77
2024/01/05 01:41:02;;;;;;;46.03;33.53;;;4.10;99.90;;;;;;4899647;29;20446;-77
2024/01/05 01:43:27;;;;;;;47.67;34.30;;;4.10;99.90;;;;;;4900526;29;20036;-76
2024/01/05 01:45:55;;;;;;;51.15;34.80;;;4.10;99.90;;;;;;4902620;29;20071;-77
2024/01/05 01:48:22;;;;;;;43.28;33.25;;;4.10;99.90;;;;;;4893062;29;20139;-75
2024/01/05 01:50:49;;;;;;;44.13;33.63;;;4.10;99.90;;;;;;4880397;29;20040;-76
2024/01/05 01:53:18;;;;;;;49.67;33.30;;;4.10;99.90;;;;;;4893579;29;20051;-77
2024/01/05 01:55:46;;;;;;;50.65;36.58;;;4.10;99.90;;;;;;4897474;29;20043;-76
2024/01/05 01:58:14;;;;;;;45.03;31.88;;;4.10;99.90;;;;;;4900803;29;20043;-76
2024/01/05 02:00:40;;;;;;;57.97;37.40;;;4.10;99.90;;;;;;4899576;29;20072;-76
2024/01/05 02:03:05;;;;;;;45.60;31.77;;;4.20;99.90;;;;;;4883362;29;20033;-75
2024/01/05 02:05:31;;;;;;;44.38;34.13;;;4.10;99.90;;;;;;4911651;29;20047;-76
2024/01/05 02:07:57;;;;;;;47.22;35.08;;;4.10;99.90;;;;;;4899079;29;20083;-76
2024/01/05 02:10:23;;;;;;;44.70;34.35;;;4.10;99.90;;;;;;4894692;29;20499;-76
2024/01/05 02:12:49;;;;;;;44.28;31.58;;;4.10;99.90;;;;;;4890154;29;20048;-77
2024/01/05 02:15:15;;;;;;;42.92;33.50;;;4.00;99.90;;;;;;4897989;29;20055;-76
2024/01/05 02:17:40;;;;;;;43.47;34.53;;;4.10;99.90;;;;;;4896625;29;20044;-76
2024/01/05 02:20:07;;;;;;;48.80;35.00;;;4.10;99.90;;;;;;4895515;29;20128;-76
2024/01/05 02:22:35;;;;;;;44.08;33.55;;;4.10;99.90;;;;;;4907372;29;20543;-76
2024/01/05 02:25:01;;;;;;;42.60;34.22;;;4.10;99.90;;;;;;4895441;29;20091;-76
2024/01/05 02:27:27;;;;;;;49.45;36.33;;;4.10;99.90;;;;;;4895940;29;20074;-76
2024/01/05 02:29:53;;;;;;;51.40;38.45;;;4.00;99.90;;;;;;4912339;29;20504;-75
2024/01/05 02:32:18;;;;;;;52.22;38.75;;;4.10;99.90;;;;;;4895435;29;20092;-76
2024/01/05 02:34:44;;;;;;;50.90;39.05;;;4.10;99.90;;;;;;4895184;29;20142;-76
2024/01/05 02:37:10;;;;;;;43.90;33.13;;;4.10;99.90;;;;;;4895586;29;20048;-77
2024/01/05 02:39:36;;;;;;;46.17;37.15;;;4.10;99.90;;;;;;4897488;29;20071;-76
2024/01/05 02:42:02;;;;;;;49.45;38.80;;;4.10;99.90;;;;;;4897981;29;20487;-76
2024/01/05 02:44:28;;;;;;;48.55;35.10;;;4.10;99.90;;;;;;4898579;29;20492;-77
2024/01/05 02:46:53;;;;;;;42.70;34.97;;;4.20;99.90;;;;;;4898508;29;20038;-76
2024/01/05 02:49:19;;;;;;;43.22;34.75;;;4.20;99.90;;;;;;4897928;29;20087;-76
2024/01/05 02:51:44;;;;;;;45.75;36.95;;;4.10;99.90;;;;;;4898604;29;20591;-77
2024/01/05 02:54:10;;;;;;;43.50;36.03;;;4.10;99.90;;;;;;4897582;29;20064;-77
2024/01/05 02:56:36;;;;;;;40.20;34.08;;;4.20;99.90;;;;;;4898476;29;20040;-76
2024/01/05 02:59:05;;;;;;;41.80;36.67;;;4.20;99.90;;;;;;4898520;29;20044;-77
2024/01/05 03:01:30;;;;;;;53.35;40.78;;;4.20;99.90;;;;;;4895211;29;20048;-77
2024/01/05 03:04:01;;;;;;;45.22;37.25;;;4.20;99.90;;;;;;4879989;29;20068;-76
2024/01/05 03:06:27;;;;;;;53.03;39.42;;;4.20;99.90;;;;;;4879944;29;20032;-77
2024/01/05 03:08:53;;;;;;;50.70;40.30;;;4.10;99.90;;;;;;4883013;29;20059;-77
2024/01/05 03:11:19;;;;;;;47.20;37.70;;;4.20;99.90;;;;;;4886827;29;20044;-77
2024/01/05 03:13:44;;;;;;;42.10;36.03;;;4.20;99.90;;;;;;4895628;29;20504;-77
2024/01/05 03:16:10;;;;;;;46.60;36.92;;;4.20;99.90;;;;;;4895114;29;20049;-76
2024/01/05 03:18:36;;;;;;;50.33;39.33;;;4.20;99.90;;;;;;4912728;29;20051;-75
2024/01/05 03:21:02;;;;;;;45.95;39.47;;;4.20;99.90;;;;;;4894193;29;20124;-77
2024/01/05 03:23:27;;;;;;;49.13;38.75;;;4.30;99.90;;;;;;4895044;29;20124;-76
2024/01/05 03:25:53;;;;;;;52.25;41.35;;;4.30;99.90;;;;;;4910896;29;20419;-76
2024/01/05 03:28:19;;;;;;;49.88;38.60;;;4.30;99.90;;;;;;4894939;29;20045;-76
2024/01/05 03:30:44;;;;;;;51.60;41.45;;;4.30;99.90;;;;;;4895211;29;20047;-76
2024/01/05 03:33:10;;;;;;;48.72;40.35;;;4.30;99.90;;;;;;4906944;29;20475;-76
2024/01/05 03:35:36;;;;;;;48.45;39.15;;;4.40;99.90;;;;;;4898086;29;20132;-76
2024/01/05 03:38:05;;;;;;;45.90;37.85;;;4.40;99.90;;;;;;4898302;29;20546;-76
2024/01/05 03:40:30;;;;;;;50.72;40.58;;;4.40;99.90;;;;;;4898114;29;20048;-76
2024/01/05 03:42:56;;;;;;;55.95;44.15;;;4.40;99.90;;;;;;4914058;29;20036;-77
2024/01/05 03:45:22;;;;;;;60.42;44.45;;;4.40;99.90;;;;;;4914328;29;20040;-76
2024/01/05 03:47:47;;;;;;;51.78;42.10;;;4.40;99.90;;;;;;4913352;29;20051;-76
2024/01/05 03:50:13;;;;;;;53.85;41.42;;;4.40;99.90;;;;;;4895778;29;20056;-77
2024/01/05 03:52:39;;;;;;;55.83;45.13;;;4.50;99.90;;;;;;4882399;29;20475;-76
2024/01/05 03:55:05;;;;;;;52.22;41.42;;;4.50;99.90;;;;;;4883665;29;20044;-76
2024/01/05 03:57:31;;;;;;;50.85;43.03;;;4.50;99.90;;;;;;4884115;29;20400;-76
2024/01/05 03:59:56;;;;;;;52.03;42.53;;;4.40;99.90;;;;;;4928897;23;20075;-75
2024/01/05 04:02:22;;;;;;;53.28;45.03;;;4.50;99.90;;;;;;4911870;29;20302;-75
2024/01/05 04:04:48;;;;;;;55.10;44.40;;;4.50;99.90;;;;;;4931416;29;20040;-75
2024/01/05 04:07:13;;;;;;;54.20;42.50;;;4.50;99.90;;;;;;4916151;29;20038;-75
2024/01/05 04:09:39;;;;;;;60.78;46.72;;;4.50;99.90;;;;;;4915143;29;20040;-75
2024/01/05 04:12:05;;;;;;;59.10;45.70;;;4.50;99.90;;;;;;4901119;29;20075;-75
2024/01/05 04:14:30;;;;;;;65.15;45.60;;;4.50;99.90;;;;;;4900895;29;20047;-75
2024/01/05 04:16:56;;;;;;;64.70;49.55;;;4.50;99.90;;;;;;4916259;29;20446;-75
2024/01/05 04:19:22;;;;;;;64.18;50.22;;;4.60;99.90;;;;;;4916276;29;20463;-75
2024/01/05 04:21:48;;;;;;;58.10;46.75;;;4.60;99.90;;;;;;4916564;29;20115;-75
2024/01/05 04:24:14;;;;;;;69.63;51.78;;;4.60;99.90;;;;;;4900703;29;20498;-75
2024/01/05 04:26:39;;;;;;;60.75;47.63;;;4.60;99.90;;;;;;4916057;29;20044;-76
2024/01/05 04:29:05;;;;;;;59.60;47.10;;;4.60;99.90;;;;;;4913280;29;20495;-75
2024/01/05 04:31:30;;;;;;;60.70;46.83;;;4.60;99.90;;;;;;4899739;29;20478;-75
2024/01/05 04:33:56;;;;;;;52.85;44.17;;;4.60;99.90;;;;;;4916650;29;20391;-75
2024/01/05 04:36:21;;;;;;;59.03;47.83;;;4.70;99.90;;;;;;4916782;29;20047;-76
2024/01/05 04:38:47;;;;;;;63.30;49.13;;;4.70;99.90;;;;;;4916428;29;20040;-75
2024/01/05 04:41:14;;;;;;;66.88;52.50;;;4.70;99.90;;;;;;4914862;29;20472;-75
2024/01/05 04:43:40;;;;;;;86.70;57.33;;;4.60;99.90;;;;;;4899376;29;20552;-75
2024/01/05 04:46:07;;;;;;;78.10;55.33;;;4.60;99.90;;;;;;4916229;29;20044;-75
2024/01/05 04:48:32;;;;;;;63.33;49.78;;;4.60;99.90;;;;;;4916206;29;20087;-75
2024/01/05 04:50:58;;;;;;;63.67;49.58;;;4.60;99.90;;;;;;4916326;29;20434;-75
2024/01/05 04:53:24;;;;;;;59.17;47.20;;;4.60;99.90;;;;;;4915953;29;20036;-75
2024/01/05 04:55:49;;;;;;;65.65;47.58;;;4.70;99.90;;;;;;4891871;29;20123;-75
2024/01/05 04:58:15;;;;;;;65.75;50.80;;;4.70;99.90;;;;;;4915817;29;20055;-75
2024/01/05 05:00:40;;;;;;;65.05;50.60;;;4.70;99.90;;;;;;4915650;29;20044;-75
2024/01/05 05:03:06;;;;;;;59.80;46.88;;;4.80;99.90;;;;;;4910658;29;20036;-76
2024/01/05 05:05:31;;;;;;;64.80;49.38;;;4.80;99.90;;;;;;4914660;29;20028;-75
2024/01/05 05:07:57;;;;;;;66.18;50.78;;;4.80;99.90;;;;;;4891848;29;20040;-75
2024/01/05 05:10:23;;;;;;;65.15;51.15;;;4.80;99.90;;;;;;4915712;29;20095;-75
2024/01/05 05:12:49;;;;;;;67.72;51.35;;;4.80;99.90;;;;;;4900220;29;20450;-75
2024/01/05 05:15:14;;;;;;;64.35;50.83;;;4.80;99.90;;;;;;4915540;29;20126;-75
2024/01/05 05:17:40;;;;;;;70.57;53.72;;;4.80;99.90;;;;;;4897951;29;20048;-75
2024/01/05 05:20:06;;;;;;;67.05;53.47;;;4.80;99.90;;;;;;4912992;29;21533;-75
2024/01/05 05:22:33;;;;;;;65.18;49.92;;;4.80;99.90;;;;;;4931224;29;20051;-75
2024/01/05 05:24:58;;;;;;;62.13;50.63;;;4.80;99.90;;;;;;4931363;29;20044;-75
2024/01/05 05:27:24;;;;;;;85.82;58.65;;;4.80;99.90;;;;;;4915521;29;20495;-75
2024/01/05 05:29:50;;;;;;;74.75;55.88;;;4.90;99.90;;;;;;4915616;29;20044;-75
2024/01/05 05:32:15;;;;;;;59.92;49.33;;;4.90;99.90;;;;;;4909265;29;20079;-75
2024/01/05 05:34:43;;;;;;;68.63;52.72;;;4.90;99.90;;;;;;4897443;29;20410;-75
2024/01/05 05:37:08;;;;;;;79.50;55.60;;;4.90;99.90;;;;;;4915374;29;20063;-75
2024/01/05 05:39:34;;;;;;;65.88;53.00;;;4.90;99.90;;;;;;4915041;29;20036;-75
2024/01/05 05:41:59;;;;;;;70.88;53.47;;;4.90;99.90;;;;;;4914445;29;20130;-75
2024/01/05 05:44:25;;;;;;;65.60;51.03;;;5.00;99.90;;;;;;4914764;29;20072;-75
2024/01/05 05:46:50;;;;;;;68.07;52.40;;;5.00;99.90;;;;;;4915564;29;20113;-75
2024/01/05 05:49:16;;;;;;;66.88;52.25;;;5.00;99.90;;;;;;4915195;29;20036;-75
2024/01/05 05:51:42;;;;;;;59.42;49.40;;;5.10;99.90;;;;;;4915353;29;20055;-75
2024/01/05 05:54:07;;;;;;;78.80;56.47;;;5.00;99.90;;;;;;4914871;29;20513;-75
2024/01/05 05:56:33;;;;;;;64.43;52.60;;;5.10;99.90;;;;;;4914918;29;20040;-75
2024/01/05 05:58:58;;;;;;;66.18;51.53;;;5.10;99.90;;;;;;4899156;29;20526;-75
2024/01/05 06:01:24;;;;;;;63.60;50.10;;;5.10;99.90;;;;;;4914713;29;20059;-75
2024/01/05 06:03:50;;;;;;;66.93;53.50;;;5.20;99.90;;;;;;4914772;29;20048;-75
2024/01/05 06:06:21;;;;;;;62.63;50.92;;;5.10;99.90;;;;;;4890757;29;20483;-75
2024/01/05 06:08:48;;;;;;;67.20;50.45;;;5.20;99.90;;;;;;4913503;29;20050;-75
2024/01/05 06:11:17;;;;;;;64.90;50.67;;;5.20;99.90;;;;;;4914559;29;20562;-75
2024/01/05 06:13:43;;;;;;;64.60;52.47;;;5.20;99.90;;;;;;4913775;29;20087;-75
2024/01/05 06:16:08;;;;;;;67.05;52.38;;;5.20;99.90;;;;;;4914433;29;20082;-75
2024/01/05 06:18:34;;;;;;;71.07;52.97;;;5.20;99.90;;;;;;4898921;29;20491;-75
2024/01/05 06:21:00;;;;;;;70.88;54.65;;;5.20;99.90;;;;;;4890505;29;20475;-75
2024/01/05 06:23:26;;;;;;;72.18;53.85;;;5.20;99.90;;;;;;4914526;29;20095;-75
2024/01/05 06:25:51;;;;;;;71.68;54.17;;;5.20;99.90;;;;;;4914103;29;20043;-75
2024/01/05 06:28:17;;;;;;;71.88;53.40;;;5.10;99.90;;;;;;4913315;29;20068;-75
2024/01/05 06:30:42;;;;;;;78.22;56.75;;;5.10;99.90;;;;;;4898937;29;20410;-75
2024/01/05 06:33:08;;;;;;;70.40;53.90;;;5.10;99.90;;;;;;4914549;29;20047;-75
2024/01/05 06:35:33;;;;;;;74.75;55.97;;;5.20;99.90;;;;;;4906919;29;20083;-75
2024/01/05 06:37:59;;;;;;;101.82;58.97;;;5.20;99.90;;;;;;4911215;29;20040;-75
2024/01/05 06:40:25;;;;;;;85.10;58.00;;;5.20;99.90;;;;;;4890966;29;20049;-75
2024/01/05 06:42:50;;;;;;;95.32;61.17;;;5.20;99.90;;;;;;4894603;29;20048;-75
2024/01/05 06:45:16;;;;;;;85.03;58.05;;;5.20;99.90;;;;;;4908404;29;20507;-75
2024/01/05 06:47:42;;;;;;;74.40;55.53;;;5.20;99.90;;;;;;4914307;29;20063;-75
2024/01/05 06:50:07;;;;;;;70.00;53.85;;;5.30;99.90;;;;;;4914119;29;20529;-75
2024/01/05 06:52:34;;;;;;;75.65;56.00;;;5.30;99.90;;;;;;4905502;29;20163;-75
2024/01/05 06:55:00;;;;;;;85.70;58.67;;;5.30;99.90;;;;;;4898071;29;20051;-75
2024/01/05 06:57:25;;;;;;;69.43;53.30;;;5.40;99.90;;;;;;4914047;29;20048;-75
2024/01/05 06:59:51;;;;;;;75.00;53.75;;;5.40;99.90;;;;;;4913028;29;20506;-75
2024/01/05 07:02:17;;;;;;;64.07;49.22;;;5.40;99.90;;;;;;4920882;29;20048;-75
2024/01/05 07:04:43;;;;;;;97.43;58.55;;;5.50;99.90;;;;;;4895042;29;20487;-75
2024/01/05 07:07:08;;;;;;;70.80;52.67;;;5.50;99.90;;;;;;4886183;29;20134;-75
2024/01/05 07:09:34;;;;;;;65.93;51.58;;;5.50;99.90;;;;;;4913729;29;20550;-75
2024/01/05 07:12:00;;;;;;;65.90;49.90;;;5.50;99.90;;;;;;4898350;29;20036;-75
2024/01/05 07:14:28;;;;;;;77.45;54.05;;;5.50;99.90;;;;;;4913438;29;20091;-75
2024/01/05 07:16:58;;;;;;;70.53;51.30;;;5.50;99.90;;;;;;4921546;29;20072;-75
2024/01/05 07:19:24;;;;;;;66.97;49.90;;;5.60;99.90;;;;;;4913835;29;20071;-75
2024/01/05 07:21:50;;;;;;;62.70;49.83;;;5.60;99.90;;;;;;4914111;29;20044;-75
2024/01/05 07:24:15;;;;;;;71.22;51.97;;;5.60;99.90;;;;;;4897930;29;20510;-75
2024/01/05 07:26:42;;;;;;;64.82;48.35;;;5.60;99.90;;;;;;4897388;29;20566;-75
2024/01/05 07:29:08;;;;;;;64.38;48.05;;;5.60;99.90;;;;;;4908391;29;20044;-75
2024/01/05 07:31:34;;;;;;;66.63;48.03;;;5.60;99.90;;;;;;4915787;29;20131;-75
2024/01/05 07:34:00;;;;;;;103.45;57.15;;;5.60;99.90;;;;;;4917699;29;20107;-75
2024/01/05 07:36:25;;;;;;;58.15;45.65;;;5.60;99.90;;;;;;4916930;29;20032;-75
2024/01/05 07:38:51;;;;;;;55.92;44.42;;;5.70;99.90;;;;;;4916107;29;20052;-75
2024/01/05 07:41:17;;;;;;;57.70;46.67;;;5.70;99.90;;;;;;4933095;29;20036;-75
2024/01/05 07:43:43;;;;;;;55.42;43.05;;;5.80;99.90;;;;;;4917510;29;20075;-75
2024/01/05 07:46:09;;;;;;;70.20;49.42;;;5.80;99.90;;;;;;4901363;29;20071;-77
2024/01/05 07:48:34;;;;;;;59.20;45.90;;;5.80;99.90;;;;;;4917611;29;20043;-73
2024/01/05 07:51:03;;;;;;;53.65;41.50;;;5.80;99.90;;;;;;4916618;29;20044;-76
2024/01/05 07:53:29;;;;;;;51.22;40.75;;;5.80;99.90;;;;;;4931926;29;20376;-76
2024/01/05 07:55:54;;;;;;;62.65;42.50;;;5.80;99.90;;;;;;4916495;29;20072;-76
2024/01/05 07:58:20;;;;;;;56.80;39.58;;;5.80;99.90;;;;;;4912245;29;20047;-76
2024/01/05 08:00:46;;;;;;;55.90;36.90;;;5.90;99.90;;;;;;4932925;29;20494;-77
2024/01/05 08:03:11;;;;;;;51.28;36.72;;;5.90;99.90;;;;;;4931172;29;20055;-76
2024/01/05 08:05:38;;;;;;;54.25;35.63;;;6.00;99.90;;;;;;4914018;29;20127;-76
2024/01/05 08:08:04;;;;;;;43.40;36.28;;;6.00;99.90;;;;;;4915339;29;20044;-75
2024/01/05 08:10:30;;;;;;;47.30;35.45;;;6.10;99.90;;;;;;4931990;29;20083;-75
2024/01/05 08:12:56;;;;;;;51.28;38.05;;;6.10;99.90;;;;;;4916921;29;20047;-75
2024/01/05 08:15:22;;;;;;;47.85;35.22;;;6.10;99.90;;;;;;4901607;29;20455;-75
2024/01/05 08:17:47;;;;;;;45.58;34.78;;;6.20;99.90;;;;;;4917106;29;20122;-75
2024/01/05 08:20:13;;;;;;;52.25;38.65;;;6.20;99.90;;;;;;4916328;29;20032;-75
2024/01/05 08:22:39;;;;;;;62.72;39.53;;;6.20;99.90;;;;;;4930466;29;20040;-75
2024/01/05 08:25:04;;;;;;;67.45;41.03;;;6.20;99.90;;;;;;4897624;29;20037;-75
2024/01/05 08:27:30;;;;;;;43.97;33.50;;;6.20;99.90;;;;;;4897910;29;20633;-75
2024/01/05 08:29:56;;;;;;;45.15;34.15;;;6.20;99.90;;;;;;4897939;29;20071;-75
2024/01/05 08:32:21;;;;;;;75.38;40.67;;;6.20;99.90;;;;;;4897949;29;20509;-74
2024/01/05 08:34:47;;;;;;;51.10;35.13;;;6.20;99.90;;;;;;4908250;29;20578;-75
2024/01/05 08:37:12;;;;;;;50.92;32.67;;;6.20;99.90;;;;;;4908737;29;20040;-74
2024/01/05 08:39:39;;;;;;;59.17;34.00;;;6.20;99.90;;;;;;4906916;29;20103;-75
2024/01/05 08:42:06;;;;;;;35.28;24.73;;;6.20;99.90;;;;;;4916394;29;20059;-75
2024/01/05 08:44:32;;;;;;;30.30;22.10;;;6.20;99.90;;;;;;4916106;29;20032;-75
2024/01/05 08:46:58;;;;;;;58.00;30.15;;;6.30;99.90;;;;;;4915101;29;20040;-75
2024/01/05 08:49:24;;;;;;;46.03;28.55;;;6.30;99.90;;;;;;4915656;29;20044;-75
2024/01/05 08:51:49;;;;;;;41.28;26.45;;;6.30;99.90;;;;;;4915100;29;20039;-75
2024/01/05 08:54:15;;;;;;;48.10;28.33;;;6.30;99.90;;;;;;4915396;29;20130;-75
2024/01/05 08:56:40;;;;;;;35.63;24.10;;;6.40;99.90;;;;;;4915519;29;20144;-77
2024/01/05 08:59:06;;;;;;;39.83;24.80;;;6.40;99.90;;;;;;4900632;29;20048;-78
2024/01/05 09:01:32;;;;;;;39.30;25.17;;;6.40;99.90;;;;;;4910966;29;20092;-76
2024/01/05 09:03:58;;;;;;;34.03;22.25;;;6.40;99.90;;;;;;4915539;29;20499;-76
2024/01/05 09:06:24;;;;;;;38.53;24.65;;;6.40;99.90;;;;;;4915546;29;20040;-76
2024/01/05 09:08:49;;;;;;;30.08;19.75;;;6.40;99.90;;;;;;4897260;29;20054;-77
2024/01/05 09:11:15;;;;;;;30.27;18.00;;;6.40;99.90;;;;;;4894775;29;20039;-77
2024/01/05 09:13:41;;;;;;;20.33;12.93;;;6.40;99.90;;;;;;4931287;29;20048;-77
2024/01/05 09:16:07;;;;;;;14.60;6.60;;;6.40;99.90;;;;;;4931520;29;20056;-77
2024/01/05 09:18:35;;;;;;;12.43;5.88;;;6.50;99.90;;;;;;4914879;29;20036;-75
2024/01/05 09:21:02;;;;;;;15.93;8.02;;;6.50;99.90;;;;;;4915442;29;20071;-76
2024/01/05 09:23:28;;;;;;;10.50;4.10;;;6.50;99.90;;;;;;4915512;29;20044;-78
2024/01/05 09:25:53;;;;;;;10.88;3.17;;;6.60;99.90;;;;;;4924743;29;20095;-78
2024/01/05 09:28:19;;;;;;;5.70;3.25;;;6.60;99.90;;;;;;4897387;29;20490;-78
2024/01/05 09:30:44;;;;;;;8.60;3.05;;;6.60;99.90;;;;;;4916821;29;20115;-77
2024/01/05 09:33:10;;;;;;;6.53;3.63;;;6.60;99.90;;;;;;4930784;29;20043;-77
2024/01/05 09:35:36;;;;;;;11.20;3.90;;;6.60;99.90;;;;;;4916877;29;20048;-77
2024/01/05 09:38:02;;;;;;;8.02;3.30;;;6.60;99.90;;;;;;4916827;29;20040;-78
2024/01/05 09:40:28;;;;;;;8.18;3.55;;;6.60;99.90;;;;;;4916281;29;20130;-78
2024/01/05 09:42:57;;;;;;;7.60;3.00;;;6.60;99.90;;;;;;4916163;29;20470;-77
2024/01/05 09:45:24;;;;;;;7.35;3.22;;;6.60;99.90;;;;;;4916900;29;20111;-77
2024/01/05 09:47:50;;;;;;;7.72;3.65;;;6.60;99.90;;;;;;4914641;29;20045;-78
2024/01/05 09:50:17;;;;;;;8.05;3.20;;;6.70;99.90;;;;;;4907295;29;20598;-78
2024/01/05 09:52:44;;;;;;;7.75;3.33;;;6.70;99.90;;;;;;4898042;29;20052;-78
2024/01/05 09:55:10;;;;;;;11.45;3.88;;;6.70;99.90;;;;;;4898481;29;20385;-78
2024/01/05 09:57:37;;;;;;;7.18;3.28;;;6.70;99.90;;;;;;4907079;29;20119;-78
2024/01/05 10:00:05;;;;;;;8.90;3.50;;;6.80;99.90;;;;;;4930807;29;20072;-78
2024/01/05 10:02:36;;;;;;;11.15;4.63;;;6.80;99.90;;;;;;4928724;29;20463;-77
2024/01/05 10:05:01;;;;;;;9.98;3.08;;;6.80;99.90;;;;;;4917330;29;20119;-77
2024/01/05 10:07:27;;;;;;;9.80;3.45;;;6.80;99.90;;;;;;4927672;29;20079;-80
2024/01/05 10:09:54;;;;;;;6.22;2.70;;;6.90;99.90;;;;;;4915569;29;20040;-79
2024/01/05 10:12:20;;;;;;;8.02;3.13;;;6.90;99.90;;;;;;4920539;29;20067;-78
2024/01/05 10:14:46;;;;;;;8.65;3.17;;;6.90;99.90;;;;;;4899997;29;20040;-78
2024/01/05 10:17:13;;;;;;;7.40;2.60;;;6.90;99.90;;;;;;4932416;29;20044;-77
2024/01/05 10:19:41;;;;;;;9.65;3.30;;;6.90;99.90;;;;;;4930344;29;20075;-77
2024/01/05 10:22:14;;;;;;;8.07;3.22;;;6.90;99.90;;;;;;4915257;29;20131;-78
2024/01/05 10:24:41;;;;;;;8.63;3.63;;;6.90;99.90;;;;;;4916500;29;20131;-78
2024/01/05 10:27:08;;;;;;;9.82;4.00;;;7.00;99.90;;;;;;4920111;29;20072;-78
2024/01/05 10:29:36;;;;;;;11.07;4.57;;;6.90;99.90;;;;;;4901163;29;20076;-77
2024/01/05 10:32:17;;;;;;;7.80;4.57;;;6.90;99.90;;;;;;4906391;29;20037;-79
2024/01/05 10:34:47;;;;;;;6.53;3.42;;;7.00;99.90;;;;;;4912535;29;20482;-76
2024/01/05 10:37:14;;;;;;;8.32;2.97;;;7.00;99.90;;;;;;4903846;29;20474;-75
2024/01/05 10:39:47;;;;;;;4.28;2.20;;;6.90;99.90;;;;;;4911385;29;20114;-77
2024/01/05 10:42:19;;;;;;;5.68;2.50;;;6.90;99.90;;;;;;4914298;29;20356;-77
2024/01/05 10:44:47;;;;;;;6.25;2.45;;;6.80;99.90;;;;;;4904972;29;20036;-76
2024/01/05 10:47:16;;;;;;;4.80;2.17;;;6.80;99.90;;;;;;4912654;29;20120;-76
2024/01/05 10:49:48;;;;;;;6.30;3.40;;;6.70;99.90;;;;;;4913881;29;20032;-76
2024/01/05 10:52:18;;;;;;;3.90;2.92;;;6.70;99.90;;;;;;4930253;29;20040;-76
2024/01/05 10:54:46;;;;;;;8.77;5.50;;;6.70;99.90;;;;;;4917352;29;20052;-76
2024/01/05 10:57:13;;;;;;;8.60;5.35;;;6.60;99.90;;;;;;4930388;29;20325;-76
2024/01/05 10:59:38;;;;;;;6.30;3.20;;;6.60;99.90;;;;;;4928669;29;20048;-76
2024/01/05 11:02:13;;;;;;;6.63;5.03;;;6.60;99.90;;;;;;4931017;29;20044;-76
2024/01/05 11:04:41;;;;;;;7.22;4.95;;;6.60;99.90;;;;;;4923767;29;20075;-76
2024/01/05 11:07:09;;;;;;;4.70;3.53;;;6.60;99.90;;;;;;4916700;29;20047;-76
2024/01/05 11:10:03;;;;;;;11.25;5.68;;;6.60;99.90;;;;;;4917384;29;20032;-76
2024/01/05 11:12:53;;;;;;;6.80;4.40;;;6.60;99.90;;;;;;4926276;29;20036;-76
2024/01/05 11:15:47;;;;;;;6.45;4.35;;;6.60;99.90;;;;;;4930266;29;20048;-77
2024/01/05 11:18:31;;;;;;;7.57;4.88;;;6.60;99.90;;;;;;4899097;29;20456;-77
2024/01/05 11:21:13;;;;;;;8.65;6.13;;;6.60;99.90;;;;;;4904720;29;20062;-77
2024/01/05 11:23:42;;;;;;;6.93;6.00;;;6.60;99.90;;;;;;4917590;29;20418;-77
2024/01/05 11:26:31;;;;;;;7.78;4.85;;;6.50;99.90;;;;;;4918359;29;20044;-77
2024/01/05 11:28:56;;;;;;;8.60;5.80;;;6.50;99.90;;;;;;4907847;29;20132;-77
2024/01/05 11:31:49;;;;;;;7.30;6.03;;;6.50;99.90;;;;;;4918661;29;20044;-75
2024/01/05 11:34:36;;;;;;;7.57;5.30;;;6.50;99.90;;;;;;4911581;29;20099;-78
2024/01/05 11:37:03;;;;;;;7.53;6.57;;;6.50;99.90;;;;;;4910515;29;20051;-79
2024/01/05 11:39:47;;;;;;;9.60;7.30;;;6.50;99.90;;;;;;4918529;29;20402;-78
2024/01/05 11:42:24;;;;;;;12.48;9.02;;;6.50;99.90;;;;;;4917045;29;20087;-78
2024/01/05 11:44:51;;;;;;;8.48;6.28;;;6.50;99.90;;;;;;4888754;29;20071;-78
2024/01/05 11:47:49;;;;;;;6.82;6.05;;;6.50;99.90;;;;;;4917473;29;20045;-79
2024/01/05 11:50:26;;;;;;;4.50;3.45;;;6.50;99.90;;;;;;4885949;29;20048;-78
2024/01/05 11:53:07;;;;;;;5.07;4.00;;;6.50;99.90;;;;;;4906399;29;20092;-78
2024/01/05 11:55:39;;;;;;;4.32;3.33;;;6.50;99.90;;;;;;4917234;29;20095;-79
2024/01/05 11:58:10;;;;;;;3.78;2.83;;;6.50;99.90;;;;;;4916987;29;20044;-79
2024/01/05 12:00:35;;;;;;;5.00;2.28;;;6.50;99.90;;;;;;4915931;29;20123;-79
2024/01/05 12:03:04;;;;;;;2.67;2.45;;;6.40;99.90;;;;;;4911595;29;20539;-79
2024/01/05 12:05:31;;;;;;;5.50;3.95;;;6.40;99.90;;;;;;4916144;29;20064;-79
2024/01/05 12:07:57;;;;;;;3.90;2.85;;;6.40;99.90;;;;;;4899490;29;20115;-78
2024/01/05 12:10:27;;;;;;;5.97;4.00;;;6.50;99.90;;;;;;4916762;29;20032;-78
2024/01/05 12:12:56;;;;;;;2.75;2.33;;;6.50;99.90;;;;;;4915924;29;20047;-79
2024/01/05 12:15:23;;;;;;;5.22;2.53;;;6.50;99.90;;;;;;4916832;29;20501;-79
2024/01/05 12:17:49;;;;;;;4.65;2.75;;;6.50;99.90;;;;;;4916367;29;20048;-79
2024/01/05 12:20:15;;;;;;;4.18;2.63;;;6.50;99.90;;;;;;4916994;29;20079;-79
2024/01/05 12:22:42;;;;;;;4.72;2.90;;;6.50;99.90;;;;;;4914000;29;20088;-79
2024/01/05 12:25:08;;;;;;;2.53;1.90;;;6.50;99.90;;;;;;4916226;29;20044;-75
2024/01/05 12:27:37;;;;;;;4.50;2.55;;;6.50;99.90;;;;;;4916995;29;20128;-76
2024/01/05 12:30:05;;;;;;;6.30;3.30;;;6.50;99.90;;;;;;4913496;29;20562;-76
2024/01/05 12:32:33;;;;;;;3.35;2.80;;;6.50;99.90;;;;;;4931792;29;20046;-76
2024/01/05 12:35:00;;;;;;;4.13;3.72;;;6.40;99.90;;;;;;4915831;29;20044;-77
2024/01/05 12:37:25;;;;;;;5.22;4.00;;;6.50;99.90;;;;;;4915734;29;20044;-77
2024/01/05 12:39:51;;;;;;;7.78;5.40;;;6.50;99.90;;;;;;4915194;29;20070;-77